Bernard A — TCWN3 — position and weather

sailwx.info

Track history (hours):
 
Tides and Currents Weather Stations Pressure Air Temp Water Temp Dewpoint Dewpoint Depression Visibility Wind Speed Wind Dir Waves Ship Positions

Bernard A

Last reported at 2016-May-29 09:26 UTC. Time now 2016-May-30 16:23 UTC.
Position N 40°58' E 028°59'.

Length 184 m; draft 7.9 m.

Type: Ship (hazmat cat A). MMSI: 271040008.

Date/timePositionNaut miles runAvg speedWind from/ knotsBaromVisibWave heightAir tempDewpointWater temp
2016-May-29 09:26N 40°58' E 028°59'7 7.7
2016-May-29 08:33N 40°52' E 028°53'6 5.9
2016-May-29 07:33N 40°52' E 028°45'2 2.4
2016-May-29 06:33N 40°54' E 028°44'  
2016-May-26 20:31N 40°55' E 028°43'6 6.1
2016-May-26 19:31N 40°55' E 028°51'  
2016-May-24 03:30N 41°01' E 028°60'8 8.1
2016-May-24 02:33N 40°54' E 028°56'8 8.3
2016-May-24 01:33N 40°48' E 028°50'1 1.2
2016-May-24 00:33N 40°46' E 028°50'0 0.4
2016-May-23 23:31N 40°47' E 028°50'0 0.3
2016-May-23 22:33N 40°47' E 028°49'25 7.5
2016-May-23 19:14N 40°25' E 029°05'0 0.4
2016-May-23 18:30N 40°25' E 029°05'0 0.0
2016-May-23 17:30N 40°25' E 029°05'0 0.0
2016-May-23 16:30N 40°25' E 029°05'0 0.0
2016-May-23 14:24N 40°25' E 029°05'0 0.0
2016-May-23 12:12N 40°25' E 029°05'0 0.0
2016-May-23 11:30N 40°25' E 029°05'0 0.0
2016-May-23 10:18N 40°25' E 029°05'0 0.0
2016-May-23 09:19N 40°25' E 029°05'0 0.0
2016-May-23 08:31N 40°25' E 029°05'0 0.0
2016-May-23 07:25N 40°25' E 029°05'0 0.0
2016-May-23 06:31N 40°25' E 029°05'0 0.0
2016-May-23 05:31N 40°25' E 029°05'0 0.0
2016-May-23 04:31N 40°25' E 029°05'0 0.0
2016-May-23 03:31N 40°25' E 029°05'0 0.0
2016-May-23 02:31N 40°25' E 029°05'0 0.0
2016-May-23 01:31N 40°25' E 029°05'21 8.8
2016-May-22 23:09N 40°36' E 028°42'912.9
2016-May-22 22:28N 40°45' E 028°43'9 0.4
2016-May-21 19:33N 40°54' E 028°45'4 4.3
2016-May-21 18:33N 40°55' E 028°50'  
Track history (hours):
 
Tides and Currents Weather Stations Pressure Air Temp Water Temp Dewpoint Dewpoint Depression Visibility Wind Speed Wind Dir Waves Ship Positions

Bernard A

Last reported at 2016-May-29 09:26 UTC. Time now 2016-May-30 16:23 UTC.
Position N 40°58' E 028°59'.

Length 184 m; draft 7.9 m.

Type: Ship (hazmat cat A). MMSI: 271040008.

Date/timePositionNaut miles runAvg speedWind from/ knotsBaromVisibWave heightAir tempDewpointWater temp
2016-May-29 09:26N 40°58' E 028°59'7 7.7
2016-May-29 08:33N 40°52' E 028°53'6 5.9
2016-May-29 07:33N 40°52' E 028°45'2 2.4
2016-May-29 06:33N 40°54' E 028°44'  
2016-May-26 20:31N 40°55' E 028°43'6 6.1
2016-May-26 19:31N 40°55' E 028°51'  
2016-May-24 03:30N 41°01' E 028°60'8 8.1
2016-May-24 02:33N 40°54' E 028°56'8 8.3
2016-May-24 01:33N 40°48' E 028°50'1 1.2
2016-May-24 00:33N 40°46' E 028°50'0 0.4
2016-May-23 23:31N 40°47' E 028°50'0 0.3
2016-May-23 22:33N 40°47' E 028°49'25 7.5
2016-May-23 19:14N 40°25' E 029°05'0 0.4
2016-May-23 18:30N 40°25' E 029°05'0 0.0
2016-May-23 17:30N 40°25' E 029°05'0 0.0
2016-May-23 16:30N 40°25' E 029°05'0 0.0
2016-May-23 14:24N 40°25' E 029°05'0 0.0
2016-May-23 12:12N 40°25' E 029°05'0 0.0
2016-May-23 11:30N 40°25' E 029°05'0 0.0
2016-May-23 10:18N 40°25' E 029°05'0 0.0
2016-May-23 09:19N 40°25' E 029°05'0 0.0
2016-May-23 08:31N 40°25' E 029°05'0 0.0
2016-May-23 07:25N 40°25' E 029°05'0 0.0
2016-May-23 06:31N 40°25' E 029°05'0 0.0
2016-May-23 05:31N 40°25' E 029°05'0 0.0
2016-May-23 04:31N 40°25' E 029°05'0 0.0
2016-May-23 03:31N 40°25' E 029°05'0 0.0
2016-May-23 02:31N 40°25' E 029°05'0 0.0
2016-May-23 01:31N 40°25' E 029°05'21 8.8
2016-May-22 23:09N 40°36' E 028°42'912.9
2016-May-22 22:28N 40°45' E 028°43'9 0.4
2016-May-21 19:33N 40°54' E 028°45'4 4.3
2016-May-21 18:33N 40°55' E 028°50'  

Dump ship's entire track history